sensor_id;sensor_type;location;lat;lon;timestamp;temperature;humidity
9640;DHT22;51745;50.872;4.732;2023-03-03T00:02:41;0.80;99.90
9640;DHT22;51745;50.872;4.732;2023-03-03T00:05:30;0.70;99.90
9640;DHT22;51745;50.872;4.732;2023-03-03T00:08:18;0.30;99.90
9640;DHT22;51745;50.872;4.732;2023-03-03T00:11:07;0.60;99.90
9640;DHT22;51745;50.872;4.732;2023-03-03T00:13:55;1.30;99.90
9640;DHT22;51745;50.872;4.732;2023-03-03T00:16:49;0.50;99.90
9640;DHT22;51745;50.872;4.732;2023-03-03T00:19:39;0.40;99.90
9640;DHT22;51745;50.872;4.732;2023-03-03T00:22:29;0.40;99.90
9640;DHT22;51745;50.872;4.732;2023-03-03T00:25:22;0.40;99.90
9640;DHT22;51745;50.872;4.732;2023-03-03T00:28:19;0.30;99.90
9640;DHT22;51745;50.872;4.732;2023-03-03T00:31:11;0.30;99.90
9640;DHT22;51745;50.872;4.732;2023-03-03T00:37:11;0.30;99.90
9640;DHT22;51745;50.872;4.732;2023-03-03T00:40:12;0.20;99.90
9640;DHT22;51745;50.872;4.732;2023-03-03T00:43:12;0.10;99.90
9640;DHT22;51745;50.872;4.732;2023-03-03T00:46:01;0.00;99.90
9640;DHT22;51745;50.872;4.732;2023-03-03T00:48:50;-0.10;99.90
9640;DHT22;51745;50.872;4.732;2023-03-03T00:51:38;-0.10;99.90
9640;DHT22;51745;50.872;4.732;2023-03-03T00:54:26;-0.20;99.90
9640;DHT22;51745;50.872;4.732;2023-03-03T00:57:16;-0.20;99.90
9640;DHT22;51745;50.872;4.732;2023-03-03T01:00:06;-0.20;99.90
9640;DHT22;51745;50.872;4.732;2023-03-03T01:02:54;-0.20;99.90
9640;DHT22;51745;50.872;4.732;2023-03-03T01:05:42;0.40;99.90
9640;DHT22;51745;50.872;4.732;2023-03-03T01:08:31;-0.10;99.90
9640;DHT22;51745;50.872;4.732;2023-03-03T01:11:21;-0.30;99.90
9640;DHT22;51745;50.872;4.732;2023-03-03T01:14:12;-0.40;99.90
9640;DHT22;51745;50.872;4.732;2023-03-03T01:16:59;0.60;99.90
9640;DHT22;51745;50.872;4.732;2023-03-03T01:19:48;-0.30;99.90
9640;DHT22;51745;50.872;4.732;2023-03-03T01:22:36;-0.20;99.90
9640;DHT22;51745;50.872;4.732;2023-03-03T01:25:27;-0.20;99.90
9640;DHT22;51745;50.872;4.732;2023-03-03T01:28:16;-0.20;99.90
9640;DHT22;51745;50.872;4.732;2023-03-03T01:31:04;-0.30;99.90
9640;DHT22;51745;50.872;4.732;2023-03-03T01:33:54;-0.30;99.90
9640;DHT22;51745;50.872;4.732;2023-03-03T01:36:42;-0.40;99.90
9640;DHT22;51745;50.872;4.732;2023-03-03T01:39:30;-0.30;99.90
9640;DHT22;51745;50.872;4.732;2023-03-03T01:42:18;-0.40;99.90
9640;DHT22;51745;50.872;4.732;2023-03-03T01:47:59;-1.30;99.90
9640;DHT22;51745;50.872;4.732;2023-03-03T01:50:47;-0.80;99.90
9640;DHT22;51745;50.872;4.732;2023-03-03T01:53:37;-0.70;99.90
9640;DHT22;51745;50.872;4.732;2023-03-03T01:56:26;-0.80;99.90
9640;DHT22;51745;50.872;4.732;2023-03-03T01:59:15;-0.80;99.90
9640;DHT22;51745;50.872;4.732;2023-03-03T02:02:04;-0.80;99.90
9640;DHT22;51745;50.872;4.732;2023-03-03T02:04:54;-0.80;99.90
9640;DHT22;51745;50.872;4.732;2023-03-03T02:07:43;-1.10;99.90
9640;DHT22;51745;50.872;4.732;2023-03-03T02:10:32;-1.00;99.90
9640;DHT22;51745;50.872;4.732;2023-03-03T02:13:20;-0.90;99.90
9640;DHT22;51745;50.872;4.732;2023-03-03T02:16:08;-1.00;99.90
9640;DHT22;51745;50.872;4.732;2023-03-03T02:18:56;-1.10;99.90
9640;DHT22;51745;50.872;4.732;2023-03-03T02:21:46;-1.10;99.90
9640;DHT22;51745;50.872;4.732;2023-03-03T02:24:34;-1.20;99.90
9640;DHT22;51745;50.872;4.732;2023-03-03T02:27:26;-1.00;99.90
9640;DHT22;51745;50.872;4.732;2023-03-03T02:30:15;-1.00;99.90
9640;DHT22;51745;50.872;4.732;2023-03-03T02:33:04;-1.30;99.90
9640;DHT22;51745;50.872;4.732;2023-03-03T02:35:52;-1.20;99.90
9640;DHT22;51745;50.872;4.732;2023-03-03T02:38:44;-1.20;99.90
9640;DHT22;51745;50.872;4.732;2023-03-03T02:41:39;-0.60;99.90
9640;DHT22;51745;50.872;4.732;2023-03-03T02:44:31;-1.40;99.90
9640;DHT22;51745;50.872;4.732;2023-03-03T02:47:19;-1.30;99.90
9640;DHT22;51745;50.872;4.732;2023-03-03T02:50:09;-1.40;99.90
9640;DHT22;51745;50.872;4.732;2023-03-03T02:52:57;-1.20;99.90
9640;DHT22;51745;50.872;4.732;2023-03-03T02:55:45;-0.60;99.90
9640;DHT22;51745;50.872;4.732;2023-03-03T02:58:33;-0.30;99.90
9640;DHT22;51745;50.872;4.732;2023-03-03T03:01:25;-1.30;99.90
9640;DHT22;51745;50.872;4.732;2023-03-03T03:04:15;-1.30;99.90
9640;DHT22;51745;50.872;4.732;2023-03-03T03:07:07;-0.50;99.90
9640;DHT22;51745;50.872;4.732;2023-03-03T03:09:57;-1.50;99.90
9640;DHT22;51745;50.872;4.732;2023-03-03T03:12:46;-1.40;99.90
9640;DHT22;51745;50.872;4.732;2023-03-03T03:15:34;-1.20;99.90
9640;DHT22;51745;50.872;4.732;2023-03-03T03:18:26;-1.10;99.90
9640;DHT22;51745;50.872;4.732;2023-03-03T03:21:15;0.60;99.90
9640;DHT22;51745;50.872;4.732;2023-03-03T03:24:03;-0.80;99.90
9640;DHT22;51745;50.872;4.732;2023-03-03T03:29:40;-0.50;99.90
9640;DHT22;51745;50.872;4.732;2023-03-03T03:32:29;-0.50;99.90
9640;DHT22;51745;50.872;4.732;2023-03-03T03:35:19;-0.40;99.90
9640;DHT22;51745;50.872;4.732;2023-03-03T03:38:07;-0.30;99.90
9640;DHT22;51745;50.872;4.732;2023-03-03T03:40:54;-0.30;99.90
9640;DHT22;51745;50.872;4.732;2023-03-03T03:43:42;-0.10;99.90
9640;DHT22;51745;50.872;4.732;2023-03-03T03:46:33;-0.10;99.90
9640;DHT22;51745;50.872;4.732;2023-03-03T03:49:21;-0.10;99.90
9640;DHT22;51745;50.872;4.732;2023-03-03T03:52:13;-0.10;99.90
9640;DHT22;51745;50.872;4.732;2023-03-03T03:55:00;-0.10;99.90
9640;DHT22;51745;50.872;4.732;2023-03-03T03:57:49;-0.10;99.90
9640;DHT22;51745;50.872;4.732;2023-03-03T04:00:38;-0.10;99.90
9640;DHT22;51745;50.872;4.732;2023-03-03T04:06:16;-0.20;99.90
9640;DHT22;51745;50.872;4.732;2023-03-03T04:09:05;-0.20;99.90
9640;DHT22;51745;50.872;4.732;2023-03-03T04:11:53;-0.40;99.90
9640;DHT22;51745;50.872;4.732;2023-03-03T04:14:41;-0.40;99.90
9640;DHT22;51745;50.872;4.732;2023-03-03T04:17:29;-0.20;99.90
9640;DHT22;51745;50.872;4.732;2023-03-03T04:20:17;-0.40;99.90
9640;DHT22;51745;50.872;4.732;2023-03-03T04:23:05;-0.20;99.90
9640;DHT22;51745;50.872;4.732;2023-03-03T04:25:55;-0.30;99.90
9640;DHT22;51745;50.872;4.732;2023-03-03T04:28:43;-0.30;99.90
9640;DHT22;51745;50.872;4.732;2023-03-03T04:31:31;0.00;99.90
9640;DHT22;51745;50.872;4.732;2023-03-03T04:34:21;-0.30;99.90
9640;DHT22;51745;50.872;4.732;2023-03-03T04:37:09;-0.30;99.90
9640;DHT22;51745;50.872;4.732;2023-03-03T04:39:57;-0.30;99.90
9640;DHT22;51745;50.872;4.732;2023-03-03T04:42:47;-0.30;99.90
9640;DHT22;51745;50.872;4.732;2023-03-03T04:45:35;-0.30;99.90
9640;DHT22;51745;50.872;4.732;2023-03-03T04:48:23;-0.40;99.90
9640;DHT22;51745;50.872;4.732;2023-03-03T04:51:10;-0.30;99.90
9640;DHT22;51745;50.872;4.732;2023-03-03T04:53:57;-0.30;99.90
9640;DHT22;51745;50.872;4.732;2023-03-03T04:56:49;-0.30;99.90
9640;DHT22;51745;50.872;4.732;2023-03-03T04:59:40;-0.30;99.90
9640;DHT22;51745;50.872;4.732;2023-03-03T05:02:28;-0.30;99.90
9640;DHT22;51745;50.872;4.732;2023-03-03T05:05:16;-0.30;99.90
9640;DHT22;51745;50.872;4.732;2023-03-03T05:08:04;-0.30;99.90
9640;DHT22;51745;50.872;4.732;2023-03-03T05:10:52;-0.30;99.90
9640;DHT22;51745;50.872;4.732;2023-03-03T05:13:41;-0.30;99.90
9640;DHT22;51745;50.872;4.732;2023-03-03T05:16:30;-0.30;99.90
9640;DHT22;51745;50.872;4.732;2023-03-03T05:19:18;-0.20;99.90
9640;DHT22;51745;50.872;4.732;2023-03-03T05:22:06;-0.20;99.90
9640;DHT22;51745;50.872;4.732;2023-03-03T05:24:54;-0.30;99.90
9640;DHT22;51745;50.872;4.732;2023-03-03T05:27:43;-0.30;99.90
9640;DHT22;51745;50.872;4.732;2023-03-03T05:30:31;-0.20;99.90
9640;DHT22;51745;50.872;4.732;2023-03-03T05:33:21;-0.20;99.90
9640;DHT22;51745;50.872;4.732;2023-03-03T05:36:10;-0.20;99.90
9640;DHT22;51745;50.872;4.732;2023-03-03T05:38:58;-0.20;99.90
9640;DHT22;51745;50.872;4.732;2023-03-03T05:41:46;-0.20;99.90
9640;DHT22;51745;50.872;4.732;2023-03-03T05:44:34;-0.30;99.90
9640;DHT22;51745;50.872;4.732;2023-03-03T05:47:22;-0.30;99.90
9640;DHT22;51745;50.872;4.732;2023-03-03T06:04:13;-0.30;99.90
9640;DHT22;51745;50.872;4.732;2023-03-03T06:07:02;-0.30;99.90
9640;DHT22;51745;50.872;4.732;2023-03-03T06:18:19;-0.30;99.90
9640;DHT22;51745;50.872;4.732;2023-03-03T06:21:11;-0.30;99.90
9640;DHT22;51745;50.872;4.732;2023-03-03T06:24:02;-0.40;99.90
9640;DHT22;51745;50.872;4.732;2023-03-03T06:26:49;-0.40;99.90
9640;DHT22;51745;50.872;4.732;2023-03-03T06:32:27;-0.30;99.90
9640;DHT22;51745;50.872;4.732;2023-03-03T06:35:15;-0.40;99.90
9640;DHT22;51745;50.872;4.732;2023-03-03T06:38:10;-0.40;99.90
9640;DHT22;51745;50.872;4.732;2023-03-03T06:40:58;-0.40;99.90
9640;DHT22;51745;50.872;4.732;2023-03-03T06:43:52;-0.40;99.90
9640;DHT22;51745;50.872;4.732;2023-03-03T06:46:42;-0.50;99.90
9640;DHT22;51745;50.872;4.732;2023-03-03T07:03:34;-0.60;99.90
9640;DHT22;51745;50.872;4.732;2023-03-03T07:06:22;-0.60;99.90
9640;DHT22;51745;50.872;4.732;2023-03-03T07:09:14;-0.60;99.90
9640;DHT22;51745;50.872;4.732;2023-03-03T07:12:08;-0.40;99.90
9640;DHT22;51745;50.872;4.732;2023-03-03T07:20:37;-0.50;99.90
9640;DHT22;51745;50.872;4.732;2023-03-03T07:23:29;-0.50;99.90
9640;DHT22;51745;50.872;4.732;2023-03-03T07:26:20;-0.50;99.90
9640;DHT22;51745;50.872;4.732;2023-03-03T07:29:14;-0.40;99.90
9640;DHT22;51745;50.872;4.732;2023-03-03T07:34:55;-0.30;99.90
9640;DHT22;51745;50.872;4.732;2023-03-03T07:37:44;-0.30;99.90
9640;DHT22;51745;50.872;4.732;2023-03-03T07:49:21;-0.30;99.90
9640;DHT22;51745;50.872;4.732;2023-03-03T07:58:13;-0.30;99.90
9640;DHT22;51745;50.872;4.732;2023-03-03T08:03:50;-0.20;99.90
9640;DHT22;51745;50.872;4.732;2023-03-03T08:09:36;-0.10;99.90
9640;DHT22;51745;50.872;4.732;2023-03-03T08:12:28;-0.10;99.90
9640;DHT22;51745;50.872;4.732;2023-03-03T08:15:19;0.00;99.90
9640;DHT22;51745;50.872;4.732;2023-03-03T08:18:13;0.00;99.90
9640;DHT22;51745;50.872;4.732;2023-03-03T08:21:03;0.00;99.90
9640;DHT22;51745;50.872;4.732;2023-03-03T08:23:55;0.10;99.90
9640;DHT22;51745;50.872;4.732;2023-03-03T08:26:43;0.10;99.90
9640;DHT22;51745;50.872;4.732;2023-03-03T08:29:32;0.10;99.90
9640;DHT22;51745;50.872;4.732;2023-03-03T08:32:21;0.20;99.90
9640;DHT22;51745;50.872;4.732;2023-03-03T08:35:10;0.20;99.90
9640;DHT22;51745;50.872;4.732;2023-03-03T08:37:59;0.20;99.90
9640;DHT22;51745;50.872;4.732;2023-03-03T08:40:52;0.20;99.90
9640;DHT22;51745;50.872;4.732;2023-03-03T08:43:41;0.20;99.90
9640;DHT22;51745;50.872;4.732;2023-03-03T08:46:33;0.20;99.90
9640;DHT22;51745;50.872;4.732;2023-03-03T08:49:22;0.20;99.90
9640;DHT22;51745;50.872;4.732;2023-03-03T08:52:10;0.30;99.90
9640;DHT22;51745;50.872;4.732;2023-03-03T08:54:58;0.20;99.90
9640;DHT22;51745;50.872;4.732;2023-03-03T08:57:50;0.40;99.90
9640;DHT22;51745;50.872;4.732;2023-03-03T09:00:37;0.40;99.90
9640;DHT22;51745;50.872;4.732;2023-03-03T09:03:26;0.40;99.90
9640;DHT22;51745;50.872;4.732;2023-03-03T09:06:15;0.40;99.90
9640;DHT22;51745;50.872;4.732;2023-03-03T09:09:05;1.80;99.90
9640;DHT22;51745;50.872;4.732;2023-03-03T09:11:53;0.50;99.90
9640;DHT22;51745;50.872;4.732;2023-03-03T09:14:44;0.60;99.90
9640;DHT22;51745;50.872;4.732;2023-03-03T09:17:33;0.60;99.90
9640;DHT22;51745;50.872;4.732;2023-03-03T09:20:33;0.50;99.90
9640;DHT22;51745;50.872;4.732;2023-03-03T09:26:30;0.60;99.90
9640;DHT22;51745;50.872;4.732;2023-03-03T09:29:23;0.70;99.90
9640;DHT22;51745;50.872;4.732;2023-03-03T09:32:19;0.60;99.90
9640;DHT22;51745;50.872;4.732;2023-03-03T09:35:25;0.80;99.90
9640;DHT22;51745;50.872;4.732;2023-03-03T09:38:20;0.80;99.90
9640;DHT22;51745;50.872;4.732;2023-03-03T09:44:24;0.80;99.90
9640;DHT22;51745;50.872;4.732;2023-03-03T09:47:18;0.80;99.90
9640;DHT22;51745;50.872;4.732;2023-03-03T09:50:14;0.90;99.90
9640;DHT22;51745;50.872;4.732;2023-03-03T09:53:11;1.00;99.90
9640;DHT22;51745;50.872;4.732;2023-03-03T09:56:11;0.90;99.90
9640;DHT22;51745;50.872;4.732;2023-03-03T09:59:06;1.20;99.90
9640;DHT22;51745;50.872;4.732;2023-03-03T10:02:02;1.20;99.90
9640;DHT22;51745;50.872;4.732;2023-03-03T10:04:56;1.20;99.90
9640;DHT22;51745;50.872;4.732;2023-03-03T10:07:52;1.20;99.90
9640;DHT22;51745;50.872;4.732;2023-03-03T10:10:43;1.20;99.90
9640;DHT22;51745;50.872;4.732;2023-03-03T10:13:38;1.20;99.90
9640;DHT22;51745;50.872;4.732;2023-03-03T10:16:41;1.20;99.90
9640;DHT22;51745;50.872;4.732;2023-03-03T10:19:35;1.30;99.90
9640;DHT22;51745;50.872;4.732;2023-03-03T10:22:26;1.40;99.90
9640;DHT22;51745;50.872;4.732;2023-03-03T10:25:23;1.30;99.90
9640;DHT22;51745;50.872;4.732;2023-03-03T10:28:25;1.40;99.90
9640;DHT22;51745;50.872;4.732;2023-03-03T10:31:19;1.40;99.90
9640;DHT22;51745;50.872;4.732;2023-03-03T10:34:17;1.40;99.90
9640;DHT22;51745;50.872;4.732;2023-03-03T10:37:14;1.60;99.90
9640;DHT22;51745;50.872;4.732;2023-03-03T10:40:08;1.70;99.90
9640;DHT22;51745;50.872;4.732;2023-03-03T10:43:04;1.70;99.90
9640;DHT22;51745;50.872;4.732;2023-03-03T10:49:21;1.80;99.90
9640;DHT22;51745;50.872;4.732;2023-03-03T10:52:18;1.80;99.90
9640;DHT22;51745;50.872;4.732;2023-03-03T11:01:29;2.00;99.90
9640;DHT22;51745;50.872;4.732;2023-03-03T11:07:39;2.00;99.90
9640;DHT22;51745;50.872;4.732;2023-03-03T11:10:43;1.90;99.90
9640;DHT22;51745;50.872;4.732;2023-03-03T11:13:35;2.10;99.90
9640;DHT22;51745;50.872;4.732;2023-03-03T11:16:30;2.20;99.90
9640;DHT22;51745;50.872;4.732;2023-03-03T11:19:25;2.40;99.90
9640;DHT22;51745;50.872;4.732;2023-03-03T11:22:19;2.30;99.90
9640;DHT22;51745;50.872;4.732;2023-03-03T11:25:12;2.40;99.90
9640;DHT22;51745;50.872;4.732;2023-03-03T11:28:12;2.40;99.90
9640;DHT22;51745;50.872;4.732;2023-03-03T11:31:07;2.50;99.90
9640;DHT22;51745;50.872;4.732;2023-03-03T11:33:59;2.20;99.90
9640;DHT22;51745;50.872;4.732;2023-03-03T11:36:48;2.70;99.90
9640;DHT22;51745;50.872;4.732;2023-03-03T11:39:37;2.50;99.90
9640;DHT22;51745;50.872;4.732;2023-03-03T11:42:30;2.70;99.90
9640;DHT22;51745;50.872;4.732;2023-03-03T11:45:21;3.10;99.90
9640;DHT22;51745;50.872;4.732;2023-03-03T11:48:13;2.80;99.90
9640;DHT22;51745;50.872;4.732;2023-03-03T11:51:04;2.70;99.90
9640;DHT22;51745;50.872;4.732;2023-03-03T11:53:57;3.00;99.90
9640;DHT22;51745;50.872;4.732;2023-03-03T11:56:47;3.20;99.90
9640;DHT22;51745;50.872;4.732;2023-03-03T11:59:49;3.40;99.90
9640;DHT22;51745;50.872;4.732;2023-03-03T12:02:54;3.30;99.90
9640;DHT22;51745;50.872;4.732;2023-03-03T12:05:49;3.20;99.90
9640;DHT22;51745;50.872;4.732;2023-03-03T12:08:46;3.10;99.90
9640;DHT22;51745;50.872;4.732;2023-03-03T12:11:42;3.30;99.90
9640;DHT22;51745;50.872;4.732;2023-03-03T12:14:39;3.30;99.90
9640;DHT22;51745;50.872;4.732;2023-03-03T12:17:46;3.40;99.90
9640;DHT22;51745;50.872;4.732;2023-03-03T12:20:40;3.50;99.90
9640;DHT22;51745;50.872;4.732;2023-03-03T12:23:38;3.50;99.90
9640;DHT22;51745;50.872;4.732;2023-03-03T12:26:35;3.90;99.90
9640;DHT22;51745;50.872;4.732;2023-03-03T12:29:31;3.90;99.90
9640;DHT22;51745;50.872;4.732;2023-03-03T12:32:29;3.80;99.90
9640;DHT22;51745;50.872;4.732;2023-03-03T12:35:24;3.60;99.90
9640;DHT22;51745;50.872;4.732;2023-03-03T12:39:05;3.80;99.90
9640;DHT22;51745;50.872;4.732;2023-03-03T12:41:42;4.30;99.90
9640;DHT22;51745;50.872;4.732;2023-03-03T12:44:33;4.00;99.90
9640;DHT22;51745;50.872;4.732;2023-03-03T12:47:23;3.90;99.90
9640;DHT22;51745;50.872;4.732;2023-03-03T12:50:21;4.10;99.90
9640;DHT22;51745;50.872;4.732;2023-03-03T12:53:16;4.90;99.90
9640;DHT22;51745;50.872;4.732;2023-03-03T12:56:11;4.10;99.90
9640;DHT22;51745;50.872;4.732;2023-03-03T12:59:02;6.10;99.90
9640;DHT22;51745;50.872;4.732;2023-03-03T13:02:17;4.20;99.90
9640;DHT22;51745;50.872;4.732;2023-03-03T13:05:12;4.30;99.90
9640;DHT22;51745;50.872;4.732;2023-03-03T13:14:11;4.60;99.90
9640;DHT22;51745;50.872;4.732;2023-03-03T13:17:13;4.70;99.90
9640;DHT22;51745;50.872;4.732;2023-03-03T13:20:02;4.70;99.90
9640;DHT22;51745;50.872;4.732;2023-03-03T13:22:54;4.70;99.90
9640;DHT22;51745;50.872;4.732;2023-03-03T13:25:46;5.40;99.90
9640;DHT22;51745;50.872;4.732;2023-03-03T13:28:36;5.10;99.90
9640;DHT22;51745;50.872;4.732;2023-03-03T13:31:28;5.00;99.90
9640;DHT22;51745;50.872;4.732;2023-03-03T13:34:22;6.20;99.90
9640;DHT22;51745;50.872;4.732;2023-03-03T13:37:14;5.80;99.90
9640;DHT22;51745;50.872;4.732;2023-03-03T13:40:12;6.30;99.90
9640;DHT22;51745;50.872;4.732;2023-03-03T13:43:03;6.80;99.90
9640;DHT22;51745;50.872;4.732;2023-03-03T13:45:57;6.30;99.90
9640;DHT22;51745;50.872;4.732;2023-03-03T13:49:12;6.40;99.90
9640;DHT22;51745;50.872;4.732;2023-03-03T13:52:07;6.50;99.90
9640;DHT22;51745;50.872;4.732;2023-03-03T13:54:58;6.60;99.90
9640;DHT22;51745;50.872;4.732;2023-03-03T13:57:58;6.10;99.90
9640;DHT22;51745;50.872;4.732;2023-03-03T14:00:53;6.60;99.90
9640;DHT22;51745;50.872;4.732;2023-03-03T14:03:48;6.40;99.90
9640;DHT22;51745;50.872;4.732;2023-03-03T14:06:44;6.70;99.90
9640;DHT22;51745;50.872;4.732;2023-03-03T14:09:38;7.00;99.90
9640;DHT22;51745;50.872;4.732;2023-03-03T14:12:34;7.20;99.90
9640;DHT22;51745;50.872;4.732;2023-03-03T14:15:26;7.10;99.90
9640;DHT22;51745;50.872;4.732;2023-03-03T14:18:26;7.30;99.90
9640;DHT22;51745;50.872;4.732;2023-03-03T14:21:15;7.80;99.90
9640;DHT22;51745;50.872;4.732;2023-03-03T14:24:06;7.80;99.90
9640;DHT22;51745;50.872;4.732;2023-03-03T14:26:56;7.70;99.90
9640;DHT22;51745;50.872;4.732;2023-03-03T14:29:44;7.90;99.90
9640;DHT22;51745;50.872;4.732;2023-03-03T14:32:32;7.80;99.90
9640;DHT22;51745;50.872;4.732;2023-03-03T14:35:31;8.10;99.90
9640;DHT22;51745;50.872;4.732;2023-03-03T14:38:21;7.60;99.90
9640;DHT22;51745;50.872;4.732;2023-03-03T14:41:15;8.00;99.90
9640;DHT22;51745;50.872;4.732;2023-03-03T14:50:28;7.80;99.90
9640;DHT22;51745;50.872;4.732;2023-03-03T14:53:22;7.10;99.90
9640;DHT22;51745;50.872;4.732;2023-03-03T14:56:22;8.60;99.90
9640;DHT22;51745;50.872;4.732;2023-03-03T14:59:15;7.80;99.90
9640;DHT22;51745;50.872;4.732;2023-03-03T15:02:26;8.20;99.90
9640;DHT22;51745;50.872;4.732;2023-03-03T15:05:17;8.00;99.90
9640;DHT22;51745;50.872;4.732;2023-03-03T15:08:08;9.10;99.90
9640;DHT22;51745;50.872;4.732;2023-03-03T15:10:56;7.70;99.90
9640;DHT22;51745;50.872;4.732;2023-03-03T15:16:50;7.60;99.90
9640;DHT22;51745;50.872;4.732;2023-03-03T15:19:41;7.60;99.90
9640;DHT22;51745;50.872;4.732;2023-03-03T15:25:36;7.60;99.90
9640;DHT22;51745;50.872;4.732;2023-03-03T15:28:32;6.70;99.90
9640;DHT22;51745;50.872;4.732;2023-03-03T15:31:26;6.90;99.90
9640;DHT22;51745;50.872;4.732;2023-03-03T15:37:14;6.40;99.90
9640;DHT22;51745;50.872;4.732;2023-03-03T15:40:12;6.50;99.90
9640;DHT22;51745;50.872;4.732;2023-03-03T15:43:05;6.40;99.90
9640;DHT22;51745;50.872;4.732;2023-03-03T15:45:58;6.50;99.90
9640;DHT22;51745;50.872;4.732;2023-03-03T15:48:53;6.60;99.90
9640;DHT22;51745;50.872;4.732;2023-03-03T15:51:48;6.50;99.90
9640;DHT22;51745;50.872;4.732;2023-03-03T15:54:53;6.40;99.90
9640;DHT22;51745;50.872;4.732;2023-03-03T15:57:45;6.30;99.90
9640;DHT22;51745;50.872;4.732;2023-03-03T16:00:42;6.30;99.90
9640;DHT22;51745;50.872;4.732;2023-03-03T16:03:36;6.40;99.90
9640;DHT22;51745;50.872;4.732;2023-03-03T16:06:29;6.70;99.90
9640;DHT22;51745;50.872;4.732;2023-03-03T16:09:21;6.60;99.90
9640;DHT22;51745;50.872;4.732;2023-03-03T16:12:14;6.60;99.90
9640;DHT22;51745;50.872;4.732;2023-03-03T16:15:08;6.00;99.90
9640;DHT22;51745;50.872;4.732;2023-03-03T16:18:01;6.30;99.90
9640;DHT22;51745;50.872;4.732;2023-03-03T16:20:52;6.80;99.90
9640;DHT22;51745;50.872;4.732;2023-03-03T16:23:45;6.30;99.90
9640;DHT22;51745;50.872;4.732;2023-03-03T16:26:37;6.20;99.90
9640;DHT22;51745;50.872;4.732;2023-03-03T16:29:33;6.20;99.90
9640;DHT22;51745;50.872;4.732;2023-03-03T16:32:23;6.20;99.90
9640;DHT22;51745;50.872;4.732;2023-03-03T16:35:19;6.20;99.90
9640;DHT22;51745;50.872;4.732;2023-03-03T16:38:08;6.20;99.90
9640;DHT22;51745;50.872;4.732;2023-03-03T16:41:00;6.10;99.90
9640;DHT22;51745;50.872;4.732;2023-03-03T16:43:50;6.10;99.90
9640;DHT22;51745;50.872;4.732;2023-03-03T16:46:43;6.10;99.90
9640;DHT22;51745;50.872;4.732;2023-03-03T16:49:33;6.30;99.90
9640;DHT22;51745;50.872;4.732;2023-03-03T16:52:24;6.00;99.90
9640;DHT22;51745;50.872;4.732;2023-03-03T16:55:17;6.00;99.90
9640;DHT22;51745;50.872;4.732;2023-03-03T16:58:09;6.20;99.90
9640;DHT22;51745;50.872;4.732;2023-03-03T17:01:05;6.30;99.90
9640;DHT22;51745;50.872;4.732;2023-03-03T17:04:00;6.10;99.90
9640;DHT22;51745;50.872;4.732;2023-03-03T17:06:52;6.30;99.90
9640;DHT22;51745;50.872;4.732;2023-03-03T17:09:52;6.00;99.90
9640;DHT22;51745;50.872;4.732;2023-03-03T17:13:05;8.10;99.90
9640;DHT22;51745;50.872;4.732;2023-03-03T17:16:05;5.70;99.90
9640;DHT22;51745;50.872;4.732;2023-03-03T17:18:58;5.00;99.90
9640;DHT22;51745;50.872;4.732;2023-03-03T17:21:54;5.00;99.90
9640;DHT22;51745;50.872;4.732;2023-03-03T17:24:47;4.90;99.90
9640;DHT22;51745;50.872;4.732;2023-03-03T17:27:43;4.60;99.90
9640;DHT22;51745;50.872;4.732;2023-03-03T17:30:34;4.50;99.90
9640;DHT22;51745;50.872;4.732;2023-03-03T17:33:27;4.40;99.90
9640;DHT22;51745;50.872;4.732;2023-03-03T17:36:22;3.70;99.90
9640;DHT22;51745;50.872;4.732;2023-03-03T17:39:21;4.40;99.90
9640;DHT22;51745;50.872;4.732;2023-03-03T17:42:16;4.10;99.90
9640;DHT22;51745;50.872;4.732;2023-03-03T17:45:07;4.10;99.90
9640;DHT22;51745;50.872;4.732;2023-03-03T17:48:02;2.90;99.90
9640;DHT22;51745;50.872;4.732;2023-03-03T17:51:00;4.10;99.90
9640;DHT22;51745;50.872;4.732;2023-03-03T17:53:59;2.40;99.90
9640;DHT22;51745;50.872;4.732;2023-03-03T17:56:54;4.00;99.90
9640;DHT22;51745;50.872;4.732;2023-03-03T17:59:57;4.10;99.90
9640;DHT22;51745;50.872;4.732;2023-03-03T18:06:04;4.20;99.90
9640;DHT22;51745;50.872;4.732;2023-03-03T18:09:07;4.40;99.90
9640;DHT22;51745;50.872;4.732;2023-03-03T18:12:05;4.50;99.90
9640;DHT22;51745;50.872;4.732;2023-03-03T18:18:04;5.20;99.90
9640;DHT22;51745;50.872;4.732;2023-03-03T18:20:57;4.70;99.90
9640;DHT22;51745;50.872;4.732;2023-03-03T18:23:47;4.70;99.90
9640;DHT22;51745;50.872;4.732;2023-03-03T18:26:36;4.80;99.90
9640;DHT22;51745;50.872;4.732;2023-03-03T18:29:28;4.70;99.90
9640;DHT22;51745;50.872;4.732;2023-03-03T18:32:18;4.70;99.90
9640;DHT22;51745;50.872;4.732;2023-03-03T18:35:20;6.50;99.90
9640;DHT22;51745;50.872;4.732;2023-03-03T18:41:25;4.90;99.90
9640;DHT22;51745;50.872;4.732;2023-03-03T18:44:23;4.80;99.90
9640;DHT22;51745;50.872;4.732;2023-03-03T18:47:16;8.60;99.90
9640;DHT22;51745;50.872;4.732;2023-03-03T18:50:15;5.00;99.90
9640;DHT22;51745;50.872;4.732;2023-03-03T18:53:17;4.80;99.90
9640;DHT22;51745;50.872;4.732;2023-03-03T18:56:08;5.00;99.90
9640;DHT22;51745;50.872;4.732;2023-03-03T18:58:56;4.90;99.90
9640;DHT22;51745;50.872;4.732;2023-03-03T19:01:45;4.90;99.90
9640;DHT22;51745;50.872;4.732;2023-03-03T19:04:39;4.80;99.90
9640;DHT22;51745;50.872;4.732;2023-03-03T19:07:42;5.50;99.90
9640;DHT22;51745;50.872;4.732;2023-03-03T19:10:52;4.60;99.90
9640;DHT22;51745;50.872;4.732;2023-03-03T19:13:41;4.50;99.90
9640;DHT22;51745;50.872;4.732;2023-03-03T19:16:30;4.50;99.90
9640;DHT22;51745;50.872;4.732;2023-03-03T19:19:22;4.40;99.90
9640;DHT22;51745;50.872;4.732;2023-03-03T19:22:22;5.00;99.90
9640;DHT22;51745;50.872;4.732;2023-03-03T19:25:17;4.40;99.90
9640;DHT22;51745;50.872;4.732;2023-03-03T19:31:15;5.90;99.90
9640;DHT22;51745;50.872;4.732;2023-03-03T19:34:04;4.40;99.90
9640;DHT22;51745;50.872;4.732;2023-03-03T19:36:57;4.40;99.90
9640;DHT22;51745;50.872;4.732;2023-03-03T19:39:54;2.30;99.90
9640;DHT22;51745;50.872;4.732;2023-03-03T19:42:52;4.30;99.90
9640;DHT22;51745;50.872;4.732;2023-03-03T19:45:48;4.30;99.90
9640;DHT22;51745;50.872;4.732;2023-03-03T19:48:40;4.40;99.90
9640;DHT22;51745;50.872;4.732;2023-03-03T19:51:30;4.30;99.90
9640;DHT22;51745;50.872;4.732;2023-03-03T19:54:31;4.30;99.90
9640;DHT22;51745;50.872;4.732;2023-03-03T19:57:27;4.40;99.90
9640;DHT22;51745;50.872;4.732;2023-03-03T20:00:22;4.40;99.90
9640;DHT22;51745;50.872;4.732;2023-03-03T20:03:24;4.50;99.90
9640;DHT22;51745;50.872;4.732;2023-03-03T20:06:19;4.50;99.90
9640;DHT22;51745;50.872;4.732;2023-03-03T20:09:13;4.40;99.90
9640;DHT22;51745;50.872;4.732;2023-03-03T20:12:07;4.40;99.90
9640;DHT22;51745;50.872;4.732;2023-03-03T20:15:04;4.60;99.90
9640;DHT22;51745;50.872;4.732;2023-03-03T20:18:02;4.70;99.90
9640;DHT22;51745;50.872;4.732;2023-03-03T20:21:02;5.20;99.90
9640;DHT22;51745;50.872;4.732;2023-03-03T20:24:09;6.10;99.90
9640;DHT22;51745;50.872;4.732;2023-03-03T20:27:02;4.80;99.90
9640;DHT22;51745;50.872;4.732;2023-03-03T20:29:56;4.80;99.90
9640;DHT22;51745;50.872;4.732;2023-03-03T20:32:50;4.80;99.90
9640;DHT22;51745;50.872;4.732;2023-03-03T20:35:43;5.10;99.90
9640;DHT22;51745;50.872;4.732;2023-03-03T20:38:38;5.10;99.90
9640;DHT22;51745;50.872;4.732;2023-03-03T20:41:32;4.90;99.90
9640;DHT22;51745;50.872;4.732;2023-03-03T20:44:29;4.90;99.90
9640;DHT22;51745;50.872;4.732;2023-03-03T20:47:23;4.90;99.90
9640;DHT22;51745;50.872;4.732;2023-03-03T20:50:20;4.90;99.90
9640;DHT22;51745;50.872;4.732;2023-03-03T20:53:13;5.00;99.90
9640;DHT22;51745;50.872;4.732;2023-03-03T20:56:06;5.10;99.90